This is the latest recevied weather packets stored in our database for station/object W1BKW. If no packets are shown the sender has not sent any weather packets the latest 10 day(s).
| Time | Temp. | Humidity | Pressure | Rain* | Wind** | Luminosity | Snow |
|---|---|---|---|---|---|---|---|
| 1778077399 | 14.44° C | 89% | 1006.8 hPa | 0 mm | - | 91 W/m² | - |
| 1778076499 | 13.89° C | 90% | 1006.9 hPa | 0 mm | - | 100 W/m² | - |
| 1778075594 | 13.89° C | 91% | 1007.1 hPa | 0 mm | - | 103 W/m² | - |
| 1778074690 | 13.89° C | 91% | 1007.1 hPa | 0 mm | - | 74 W/m² | - |
| 1778073787 | 13.89° C | 91% | 1006.9 hPa | 0 mm | - | 87 W/m² | - |
| 1778072884 | 13.89° C | 90% | 1006.9 hPa | 0 mm | - | 76 W/m² | - |
| 1778071982 | 13.89° C | 91% | 1007.2 hPa | 0 mm | - | 55 W/m² | - |
| 1778071081 | 13.89° C | 88% | 1007.6 hPa | 0 mm | - | 55 W/m² | - |
| 1778070178 | 13.89° C | 90% | 1007.8 hPa | 0 mm | - | 42 W/m² | - |
| 1778069277 | 13.89° C | 90% | 1007.9 hPa | 0 mm | - | 73 W/m² | - |
| 1778068375 | 13.89° C | 90% | 1008 hPa | 0 mm | - | 41 W/m² | - |
| 1778067475 | 13.33° C | 92% | 1007.7 hPa | 0 mm | - | 39 W/m² | - |
| 1778066571 | 12.78° C | 99% | 1007.6 hPa | 0 mm | - | 64 W/m² | - |
| 1778065669 | 12.22° C | 99% | 1007.7 hPa | 0 mm | - | 49 W/m² | - |
| 1778064766 | 12.22° C | 99% | 1007.9 hPa | 0 mm | - | 52 W/m² | - |
| 1778063864 | 12.22° C | 99% | 1007.7 hPa | 0 mm | - | 15 W/m² | - |
| 1778062962 | 11.67° C | 99% | 1007.9 hPa | 0 mm | - | 8 W/m² | - |
| 1778062059 | 11.67° C | 99% | 1007.5 hPa | 0 mm | - | 11 W/m² | - |
| 1778061158 | 11.67° C | 99% | 1007.6 hPa | 0 mm | - | 4 W/m² | - |
| 1778060257 | 11.67° C | 99% | 1007.8 hPa | 0 mm | - | 0 W/m² | - |
| 1778059355 | 11.67° C | 99% | 1007.4 hPa | 0 mm | - | 0 W/m² | - |
| 1778058453 | 12.22° C | 98% | 1007.3 hPa | 0 mm | - | 0 W/m² | - |
| 1778057548 | 12.78° C | 97% | 1007.4 hPa | 0 mm | - | 0 W/m² | - |
| 1778056644 | 13.33° C | 93% | 1007.4 hPa | 0 mm | - | 0 W/m² | - |
| 1778055740 | 13.89° C | 92% | 1007.4 hPa | 0 mm | - | 0 W/m² | - |
* Rain latest hour (hover to see other rain measurements)
** Current wind speed in m/s (hover to see current wind gust speed)